昆明 の空港の天気 - METARとTAF

昆明巫家餽国際空港 ( ZPPP / KMG ) - 中国 雲南省昆明市
飛行場実況気象(Metar)
観測時間10/22 19:00 CST (10/22 11:00 UTC)
風向・風速東南東 2m/s
視程10km以上
天気現象
なし
気温13℃
湿度51%
気圧1025hPa
METARZPPP 221100Z 12002MPS CAVOK 13/03 Q1025 NOSIG
過去の天気等 Google飛行場航空写真 Wunderground天気予報

過去48時間のMETAR

飛行場予報(TAF)
発表時間: 10/22 17:04 CST (10/22 09:04 UTC)
予報対象時間: 22日20時 CST ~ 23日20時 CST
風向・風速北東 4m/s
視程10km以上
全天の4割程度の雲 雲底高度 910m
TAF ZPPP 220904Z 2212/2312 04004MPS 9999 SCT030 TX18/2308Z TN07/2223Z